createdAt,value
2019-04-25T00:00:36.843Z,0.70
2019-04-25T00:03:07.384Z,0.70
2019-04-25T00:05:38.675Z,0.70
2019-04-25T00:08:09.581Z,0.60
2019-04-25T00:10:39.894Z,0.70
2019-04-25T00:13:11.738Z,0.60
2019-04-25T00:15:44.467Z,0.60
2019-04-25T00:18:14.254Z,0.70
2019-04-25T00:20:49.097Z,0.70
2019-04-25T00:23:19.387Z,0.70
2019-04-25T00:25:58.099Z,0.70
2019-04-25T00:28:28.295Z,0.70
2019-04-25T00:30:58.557Z,0.70
2019-04-25T00:33:28.762Z,0.70
2019-04-25T00:35:58.957Z,0.70
2019-04-25T00:38:29.294Z,0.67
2019-04-25T00:40:59.496Z,0.70
2019-04-25T00:43:31.357Z,0.70
2019-04-25T00:46:01.786Z,0.70
2019-04-25T00:48:32.017Z,0.70
2019-04-25T00:51:02.199Z,0.70
2019-04-25T00:53:32.502Z,0.70
2019-04-25T00:56:02.846Z,0.70
2019-04-25T00:58:53.190Z,0.70
2019-04-25T01:01:46.867Z,0.60
2019-04-25T01:04:19.514Z,0.70
2019-04-25T01:06:49.757Z,0.70
2019-04-25T01:09:22.245Z,0.70
2019-04-25T01:11:53.182Z,0.70
2019-04-25T01:14:23.513Z,0.70
2019-04-25T01:16:53.935Z,0.70
2019-04-25T01:19:25.155Z,0.70
2019-04-25T01:21:56.062Z,0.60
2019-04-25T01:24:26.712Z,0.70
2019-04-25T01:26:56.871Z,0.70
2019-04-25T01:29:27.170Z,0.70
2019-04-25T01:31:57.326Z,0.70
2019-04-25T01:34:47.040Z,0.70
2019-04-25T01:37:28.358Z,0.70
2019-04-25T01:40:20.821Z,0.70
2019-04-25T01:43:10.545Z,0.70
2019-04-25T01:45:41.074Z,0.70
2019-04-25T01:48:11.364Z,0.70
2019-04-25T01:50:43.636Z,0.70
2019-04-25T01:53:14.592Z,0.70
2019-04-25T01:55:53.292Z,0.70
2019-04-25T01:58:16.862Z,0.70
2019-04-25T02:00:48.164Z,0.70
2019-04-25T02:03:18.426Z,0.70
2019-04-25T02:05:48.730Z,0.70
2019-04-25T02:08:19.227Z,0.70
2019-04-25T02:10:57.003Z,0.70
2019-04-25T02:13:27.180Z,0.70
2019-04-25T02:15:57.704Z,0.70
2019-04-25T02:18:28.019Z,0.70
2019-04-25T02:21:00.301Z,0.70
2019-04-25T02:23:30.416Z,0.70
2019-04-25T02:26:12.392Z,0.70
2019-04-25T02:28:33.835Z,0.70
2019-04-25T02:31:08.607Z,0.70
2019-04-25T02:33:36.239Z,0.70
2019-04-25T02:36:08.529Z,0.70
2019-04-25T02:38:38.498Z,0.60
2019-04-25T02:41:09.144Z,0.70
2019-04-25T02:43:39.764Z,0.70
2019-04-25T02:46:42.033Z,0.70
2019-04-25T02:49:40.723Z,0.70
2019-04-25T02:52:24.877Z,0.70
2019-04-25T02:54:56.910Z,0.60
2019-04-25T02:57:27.287Z,0.70
2019-04-25T02:59:58.526Z,0.70
2019-04-25T03:02:28.850Z,0.70
2019-04-25T03:04:59.697Z,0.70
2019-04-25T03:07:31.114Z,0.70
2019-04-25T03:10:02.020Z,0.70
2019-04-25T03:12:35.904Z,0.70
2019-04-25T03:15:07.213Z,0.80
2019-04-25T03:17:36.623Z,0.70
2019-04-25T03:20:24.811Z,0.70
2019-04-25T03:22:55.065Z,0.70
2019-04-25T03:25:25.247Z,0.70
2019-04-25T03:27:55.512Z,0.70
2019-04-25T03:30:25.795Z,0.70
2019-04-25T03:32:56.339Z,0.70
2019-04-25T03:35:26.655Z,0.70
2019-04-25T03:37:56.990Z,0.70
2019-04-25T03:40:27.226Z,0.70
2019-04-25T03:42:57.478Z,0.73
2019-04-25T03:45:27.801Z,0.70
2019-04-25T03:47:58.069Z,0.70
2019-04-25T03:50:28.362Z,0.70
2019-04-25T03:52:58.711Z,0.70
2019-04-25T03:55:29.088Z,0.70
2019-04-25T03:57:59.413Z,0.70
2019-04-25T04:00:29.741Z,0.70
2019-04-25T04:02:59.937Z,0.70
2019-04-25T04:05:30.351Z,0.80
2019-04-25T04:08:00.602Z,0.70
2019-04-25T04:10:30.919Z,0.80
2019-04-25T04:13:01.074Z,0.80
2019-04-25T04:15:33.426Z,0.80
2019-04-25T04:18:08.610Z,0.80
2019-04-25T04:20:57.993Z,0.70
2019-04-25T04:23:34.605Z,0.80
2019-04-25T04:26:05.508Z,0.70
2019-04-25T04:28:36.440Z,0.70
2019-04-25T04:31:06.667Z,0.77
2019-04-25T04:33:36.985Z,0.80
2019-04-25T04:36:07.430Z,0.70
2019-04-25T04:38:37.794Z,0.70
2019-04-25T04:41:08.103Z,0.80
2019-04-25T04:43:38.274Z,0.80
2019-04-25T04:46:08.659Z,0.80
2019-04-25T04:48:38.925Z,0.80
2019-04-25T04:51:09.208Z,0.80
2019-04-25T04:53:39.356Z,0.80
2019-04-25T04:56:09.733Z,0.70
2019-04-25T04:58:39.973Z,0.80
2019-04-25T05:01:11.034Z,0.80
2019-04-25T05:04:04.001Z,0.80
2019-04-25T05:07:00.583Z,0.70
2019-04-25T05:09:30.744Z,0.80
2019-04-25T05:12:01.052Z,0.80
2019-04-25T05:14:31.198Z,0.80
2019-04-25T05:17:01.536Z,0.70
2019-04-25T05:19:33.463Z,0.70
2019-04-25T05:22:03.883Z,0.70
2019-04-25T05:24:34.192Z,0.70
2019-04-25T05:27:04.560Z,0.73
2019-04-25T05:29:34.810Z,0.80
2019-04-25T05:32:05.136Z,0.70
2019-04-25T05:34:35.412Z,0.70
2019-04-25T05:37:05.642Z,0.80
2019-04-25T05:39:36.108Z,0.70
2019-04-25T05:42:25.711Z,0.80
2019-04-25T05:44:59.058Z,0.70
2019-04-25T05:47:29.252Z,0.70
2019-04-25T05:49:59.532Z,0.70
2019-04-25T05:52:29.932Z,0.70
2019-04-25T05:55:00.220Z,0.80
2019-04-25T05:57:30.567Z,0.70
2019-04-25T06:00:00.872Z,0.77
2019-04-25T06:02:31.150Z,0.70
2019-04-25T06:05:01.381Z,0.70
2019-04-25T06:07:33.221Z,0.80
2019-04-25T06:10:21.690Z,0.70
2019-04-25T06:13:07.760Z,0.70
2019-04-25T06:15:38.004Z,0.70
2019-04-25T06:18:39.264Z,0.70
2019-04-25T06:21:10.794Z,0.73
2019-04-25T06:24:18.306Z,0.70
2019-04-25T06:27:17.688Z,0.70
2019-04-25T06:29:58.094Z,0.70
2019-04-25T06:32:23.182Z,0.63
2019-04-25T06:34:54.294Z,0.70
2019-04-25T06:37:25.808Z,0.70
2019-04-25T06:39:56.126Z,0.70
2019-04-25T06:42:27.021Z,0.70
2019-04-25T06:45:16.346Z,0.70
2019-04-25T06:48:18.516Z,0.70
2019-04-25T06:50:48.688Z,0.63
2019-04-25T06:53:19.048Z,0.70
2019-04-25T06:55:49.370Z,0.70
2019-04-25T06:58:19.736Z,0.70
2019-04-25T07:00:58.690Z,0.70
2019-04-25T07:03:22.800Z,0.60
2019-04-25T07:05:53.838Z,0.70
2019-04-25T07:08:25.766Z,0.70
2019-04-25T07:10:56.104Z,0.70
2019-04-25T07:13:26.993Z,0.70
2019-04-25T07:15:57.460Z,0.70
2019-04-25T07:18:30.586Z,0.70
2019-04-25T07:20:59.685Z,0.63
2019-04-25T07:23:29.970Z,0.70
2019-04-25T07:26:09.454Z,0.70
2019-04-25T07:28:47.823Z,0.70
2019-04-25T07:31:29.176Z,0.60
2019-04-25T07:34:03.311Z,0.67
2019-04-25T07:36:38.469Z,0.60
2019-04-25T07:39:10.635Z,0.70
2019-04-25T07:41:41.206Z,0.70
2019-04-25T07:44:11.391Z,0.60
2019-04-25T07:46:43.197Z,0.60
2019-04-25T07:49:13.653Z,0.60
2019-04-25T07:51:45.397Z,0.67
2019-04-25T07:54:15.996Z,0.70
2019-04-25T07:56:46.321Z,0.60
2019-04-25T07:59:16.672Z,0.60
2019-04-25T08:01:46.977Z,0.70
2019-04-25T08:04:17.213Z,0.60
2019-04-25T08:06:47.418Z,0.50
2019-04-25T08:09:17.722Z,0.60
2019-04-25T08:11:48.007Z,0.60
2019-04-25T08:14:28.453Z,0.60
2019-04-25T08:17:01.236Z,0.60
2019-04-25T08:19:33.209Z,0.60
2019-04-25T08:22:03.915Z,0.60
2019-04-25T08:24:37.254Z,0.70
2019-04-25T08:27:07.653Z,0.60
2019-04-25T08:29:39.593Z,0.63
2019-04-25T08:32:10.002Z,0.60
2019-04-25T08:34:40.187Z,0.60
2019-04-25T08:37:17.939Z,0.60
2019-04-25T08:39:44.116Z,0.60
2019-04-25T08:42:14.778Z,0.60
2019-04-25T08:44:45.164Z,0.60
2019-04-25T08:47:15.564Z,0.60
2019-04-25T08:49:50.244Z,0.60
2019-04-25T08:52:20.776Z,0.60
2019-04-25T08:55:10.092Z,0.60
2019-04-25T08:58:03.760Z,0.60
2019-04-25T09:01:00.690Z,0.60
2019-04-25T09:03:30.117Z,0.60
2019-04-25T09:06:00.422Z,0.60
2019-04-25T09:08:30.720Z,0.60
2019-04-25T09:11:00.887Z,0.60
2019-04-25T09:13:31.164Z,0.60
2019-04-25T09:16:01.477Z,0.60
2019-04-25T09:18:31.727Z,0.70
2019-04-25T09:21:03.878Z,0.60
2019-04-25T09:23:36.239Z,0.60
2019-04-25T09:26:05.920Z,0.60
2019-04-25T09:28:38.827Z,0.67
2019-04-25T09:31:08.402Z,0.63
2019-04-25T09:33:39.156Z,0.60
2019-04-25T09:36:09.675Z,0.60
2019-04-25T09:38:40.961Z,0.60
2019-04-25T09:41:11.415Z,0.60
2019-04-25T09:43:41.773Z,0.60
2019-04-25T09:46:24.286Z,0.60
2019-04-25T09:49:09.070Z,0.60
2019-04-25T09:51:57.172Z,0.60
2019-04-25T09:54:36.311Z,0.60
2019-04-25T09:57:24.623Z,0.60
2019-04-25T09:59:54.939Z,0.60
2019-04-25T10:02:25.948Z,0.60
2019-04-25T10:04:56.295Z,0.60
2019-04-25T10:07:26.614Z,0.60
2019-04-25T10:09:56.927Z,0.60
2019-04-25T10:12:27.115Z,0.60
2019-04-25T10:15:14.463Z,0.50
2019-04-25T10:17:45.287Z,0.60
2019-04-25T10:20:18.331Z,0.60
2019-04-25T10:22:48.661Z,0.60
2019-04-25T10:25:19.534Z,0.60
2019-04-25T10:27:49.902Z,0.60
2019-04-25T10:30:23.541Z,0.50
2019-04-25T10:32:54.380Z,0.50
2019-04-25T10:35:23.982Z,0.60
2019-04-25T10:37:55.030Z,0.60
2019-04-25T10:40:25.847Z,0.57
2019-04-25T10:42:56.165Z,0.50
2019-04-25T10:45:26.459Z,0.60
2019-04-25T10:47:56.847Z,0.60
2019-04-25T10:50:27.191Z,0.60
2019-04-25T10:52:57.473Z,0.53
2019-04-25T10:55:27.699Z,0.60
2019-04-25T10:57:58.131Z,0.50
2019-04-25T11:00:36.077Z,0.50
2019-04-25T11:03:28.438Z,0.60
2019-04-25T11:05:58.777Z,0.50
2019-04-25T11:08:29.047Z,0.60
2019-04-25T11:10:59.517Z,0.60
2019-04-25T11:13:30.017Z,0.50
2019-04-25T11:16:00.512Z,0.50
2019-04-25T11:18:30.798Z,0.50
2019-04-25T11:21:01.007Z,0.50
2019-04-25T11:23:31.267Z,0.60
2019-04-25T11:26:01.492Z,0.50
2019-04-25T11:28:33.369Z,0.50
2019-04-25T11:31:05.469Z,0.40
2019-04-25T11:33:36.569Z,0.50
2019-04-25T11:36:06.703Z,0.50
2019-04-25T11:39:05.279Z,0.50
2019-04-25T11:41:35.706Z,0.50
2019-04-25T11:44:06.222Z,0.50
2019-04-25T11:46:39.212Z,0.50
2019-04-25T11:49:08.655Z,0.40
2019-04-25T11:51:38.851Z,0.50
2019-04-25T11:54:09.136Z,0.50
2019-04-25T11:56:39.512Z,0.50
2019-04-25T11:59:09.729Z,0.50
2019-04-25T12:01:39.990Z,0.60
2019-04-25T12:04:10.310Z,0.50
2019-04-25T12:06:40.746Z,0.50
2019-04-25T12:09:11.267Z,0.50
2019-04-25T12:11:41.506Z,0.50
2019-04-25T12:14:11.778Z,0.50
2019-04-25T12:16:46.142Z,0.50
2019-04-25T12:19:14.037Z,0.50
2019-04-25T12:21:44.707Z,0.45
2019-04-25T12:24:15.099Z,0.50
2019-04-25T12:26:47.396Z,0.50
2019-04-25T12:29:17.452Z,0.50
2019-04-25T12:31:47.736Z,0.50
2019-04-25T12:34:18.042Z,0.50
2019-04-25T12:36:48.440Z,0.50
2019-04-25T12:39:18.752Z,0.50
2019-04-25T12:41:50.405Z,0.55
2019-04-25T12:44:36.428Z,0.40
2019-04-25T12:47:11.328Z,0.53
2019-04-25T12:49:41.548Z,0.50
2019-04-25T12:52:11.886Z,0.55
2019-04-25T12:54:42.160Z,0.50
2019-04-25T12:57:14.706Z,0.50
2019-04-25T12:59:45.211Z,0.50
2019-04-25T13:02:15.914Z,0.50
2019-04-25T13:04:47.666Z,0.50
2019-04-25T13:07:17.988Z,0.50
2019-04-25T13:09:51.254Z,0.60
2019-04-25T13:12:20.493Z,0.50
2019-04-25T13:14:50.742Z,0.53
2019-04-25T13:17:21.399Z,0.55
2019-04-25T13:19:51.663Z,0.50
2019-04-25T13:22:22.019Z,0.57
2019-04-25T13:24:52.306Z,0.53
2019-04-25T13:27:34.867Z,0.60
2019-04-25T13:30:25.645Z,0.50
2019-04-25T13:33:09.159Z,0.60
2019-04-25T13:35:44.763Z,0.60
2019-04-25T13:38:15.021Z,0.50
2019-04-25T13:40:45.374Z,0.50
2019-04-25T13:43:15.644Z,0.60
2019-04-25T13:45:45.984Z,0.50
2019-04-25T13:48:16.245Z,0.60
2019-04-25T13:50:46.798Z,0.50
2019-04-25T13:53:16.992Z,0.50
2019-04-25T13:55:47.262Z,0.60
2019-04-25T13:58:17.585Z,0.50
2019-04-25T14:00:47.858Z,0.60
2019-04-25T14:03:18.138Z,0.50
2019-04-25T14:05:48.324Z,0.60
2019-04-25T14:08:18.608Z,0.50
2019-04-25T14:10:48.795Z,0.50
2019-04-25T14:13:19.113Z,0.50
2019-04-25T14:15:59.790Z,0.60
2019-04-25T14:18:40.974Z,0.50
2019-04-25T14:21:16.790Z,0.50
2019-04-25T14:23:47.058Z,0.50
2019-04-25T14:26:17.775Z,0.60
2019-04-25T14:28:48.026Z,0.50
2019-04-25T14:31:35.417Z,0.50
2019-04-25T14:33:52.257Z,0.50
2019-04-25T14:36:25.007Z,0.50
2019-04-25T14:38:54.533Z,0.50
2019-04-25T14:41:25.967Z,0.50
2019-04-25T14:43:56.260Z,0.50
2019-04-25T14:46:26.605Z,0.50
2019-04-25T14:48:57.030Z,0.60
2019-04-25T14:51:28.136Z,0.50
2019-04-25T14:54:00.113Z,0.60
2019-04-25T14:56:45.624Z,0.60
2019-04-25T14:59:16.093Z,0.50
2019-04-25T15:01:46.536Z,0.50
2019-04-25T15:04:16.781Z,0.50
2019-04-25T15:06:47.053Z,0.55
2019-04-25T15:09:17.404Z,0.50
2019-04-25T15:11:47.730Z,0.50
2019-04-25T15:14:18.032Z,0.60
2019-04-25T15:16:48.317Z,0.50
2019-04-25T15:19:18.646Z,0.50
2019-04-25T15:21:48.872Z,0.50
2019-04-25T15:24:19.246Z,0.50
2019-04-25T15:26:49.558Z,0.50
2019-04-25T15:29:19.957Z,0.50
2019-04-25T15:31:55.970Z,0.55
2019-04-25T15:34:25.830Z,0.50
2019-04-25T15:37:04.592Z,0.50
2019-04-25T15:39:52.507Z,0.50
2019-04-25T15:42:40.681Z,0.50
2019-04-25T15:45:38.615Z,0.50
2019-04-25T15:48:08.907Z,0.50
2019-04-25T15:50:39.758Z,0.50
2019-04-25T15:53:10.023Z,0.60
2019-04-25T15:55:40.782Z,0.50
2019-04-25T15:58:11.217Z,0.50
2019-04-25T16:00:41.592Z,0.50
2019-04-25T16:03:12.255Z,0.50
2019-04-25T16:05:42.561Z,0.50
2019-04-25T16:08:12.824Z,0.50
2019-04-25T16:10:42.999Z,0.50
2019-04-25T16:13:13.532Z,0.50
2019-04-25T16:15:43.844Z,0.50
2019-04-25T16:18:14.345Z,0.50
2019-04-25T16:20:44.566Z,0.50
2019-04-25T16:23:15.087Z,0.55
2019-04-25T16:25:45.431Z,0.50
2019-04-25T16:28:15.710Z,0.50
2019-04-25T16:30:45.999Z,0.50
2019-04-25T16:33:16.263Z,0.50
2019-04-25T16:35:46.617Z,0.50
2019-04-25T16:38:17.287Z,0.55
2019-04-25T16:40:47.525Z,0.40
2019-04-25T16:43:21.803Z,0.50
2019-04-25T16:45:52.161Z,0.50
2019-04-25T16:48:22.911Z,0.50
2019-04-25T16:50:53.165Z,0.50
2019-04-25T16:53:23.571Z,0.50
2019-04-25T16:55:53.957Z,0.50
2019-04-25T16:58:24.321Z,0.50
2019-04-25T17:01:07.916Z,0.50
2019-04-25T17:03:38.689Z,0.50
2019-04-25T17:06:09.369Z,0.50
2019-04-25T17:08:40.240Z,0.50
2019-04-25T17:11:12.159Z,0.50
2019-04-25T17:13:52.015Z,0.50
2019-04-25T17:16:50.328Z,0.50
2019-04-25T17:19:25.185Z,0.40
2019-04-25T17:21:55.423Z,0.50
2019-04-25T17:24:25.833Z,0.40
2019-04-25T17:26:56.029Z,0.50
2019-04-25T17:29:26.326Z,0.50
2019-04-25T17:32:24.571Z,0.50
2019-04-25T17:35:19.851Z,0.50
2019-04-25T17:38:06.311Z,0.50
2019-04-25T17:40:37.597Z,0.50
2019-04-25T17:43:11.213Z,0.50
2019-04-25T17:45:39.926Z,0.50
2019-04-25T17:48:10.312Z,0.50
2019-04-25T17:50:40.457Z,0.50
2019-04-25T17:53:10.738Z,0.50
2019-04-25T17:55:41.607Z,0.50
2019-04-25T17:58:11.826Z,0.50
2019-04-25T18:00:43.599Z,0.50
2019-04-25T18:03:14.246Z,0.50
2019-04-25T18:05:44.525Z,0.50
2019-04-25T18:08:14.955Z,0.60
2019-04-25T18:10:45.185Z,0.50
2019-04-25T18:13:15.384Z,0.50
2019-04-25T18:15:53.085Z,0.50
2019-04-25T18:18:43.519Z,0.60
2019-04-25T18:21:14.044Z,0.50
2019-04-25T18:24:08.763Z,0.53
2019-04-25T18:26:47.137Z,0.60
2019-04-25T18:29:17.698Z,0.50
2019-04-25T18:31:48.451Z,0.50
2019-04-25T18:34:28.518Z,0.50
2019-04-25T18:37:15.905Z,0.50
2019-04-25T18:39:52.734Z,0.50
2019-04-25T18:42:42.041Z,0.50
2019-04-25T18:45:15.102Z,0.50
2019-04-25T18:47:45.417Z,0.60
2019-04-25T18:50:17.853Z,0.53
2019-04-25T18:52:57.830Z,0.60
2019-04-25T18:55:47.854Z,0.50
2019-04-25T18:58:37.568Z,0.50
2019-04-25T19:01:33.277Z,0.60
2019-04-25T19:04:12.855Z,0.50
2019-04-25T19:06:53.481Z,0.60
2019-04-25T19:09:15.104Z,0.50
2019-04-25T19:11:45.286Z,0.50
2019-04-25T19:14:15.592Z,0.50
2019-04-25T19:16:45.897Z,0.50
2019-04-25T19:19:16.041Z,0.50
2019-04-25T19:21:46.461Z,0.60
2019-04-25T19:24:16.808Z,0.50
2019-04-25T19:26:47.914Z,0.60
2019-04-25T19:29:18.417Z,0.50
2019-04-25T19:31:48.722Z,0.60
2019-04-25T19:34:19.116Z,0.50
2019-04-25T19:36:49.532Z,0.50
2019-04-25T19:39:21.187Z,0.60
2019-04-25T19:42:09.198Z,0.50
2019-04-25T19:44:40.031Z,0.60
2019-04-25T19:47:11.412Z,0.60
2019-04-25T19:49:42.018Z,0.50
2019-04-25T19:52:13.124Z,0.60
2019-04-25T19:54:43.349Z,0.50
2019-04-25T19:57:13.825Z,0.50
2019-04-25T19:59:44.698Z,0.60
2019-04-25T20:02:26.302Z,0.60
2019-04-25T20:05:17.486Z,0.60
2019-04-25T20:07:55.918Z,0.60
2019-04-25T20:10:46.850Z,0.60
2019-04-25T20:13:17.279Z,0.60
2019-04-25T20:15:47.645Z,0.60
2019-04-25T20:18:17.879Z,0.60
2019-04-25T20:20:48.152Z,0.60
2019-04-25T20:23:18.335Z,0.60
2019-04-25T20:25:48.756Z,0.60
2019-04-25T20:28:19.015Z,0.60
2019-04-25T20:30:49.204Z,0.60
2019-04-25T20:33:19.478Z,0.60
2019-04-25T20:35:49.689Z,0.60
2019-04-25T20:38:19.921Z,0.60
2019-04-25T20:40:50.243Z,0.60
2019-04-25T20:43:20.671Z,0.60
2019-04-25T20:45:50.912Z,0.50
2019-04-25T20:48:21.257Z,0.60
2019-04-25T20:50:52.424Z,0.60
2019-04-25T20:53:22.785Z,0.60
2019-04-25T20:55:52.975Z,0.50
2019-04-25T20:58:23.436Z,0.60
2019-04-25T21:00:56.242Z,0.53
2019-04-25T21:03:26.556Z,0.50
2019-04-25T21:06:05.018Z,0.50
2019-04-25T21:08:35.480Z,0.60
2019-04-25T21:11:05.851Z,0.60
2019-04-25T21:13:59.147Z,0.50
2019-04-25T21:16:50.409Z,0.60
2019-04-25T21:19:25.761Z,0.60
2019-04-25T21:21:56.577Z,0.60
2019-04-25T21:24:27.029Z,0.60
2019-04-25T21:26:57.325Z,0.60
2019-04-25T21:29:27.694Z,0.60
2019-04-25T21:31:58.842Z,0.60
2019-04-25T21:34:30.821Z,0.60
2019-04-25T21:37:01.791Z,0.60
2019-04-25T21:39:58.354Z,0.60
2019-04-25T21:42:32.759Z,0.60
2019-04-25T21:45:03.539Z,0.60
2019-04-25T21:47:33.774Z,0.60
2019-04-25T21:50:05.282Z,0.60
2019-04-25T21:52:35.938Z,0.60
2019-04-25T21:55:07.219Z,0.60
2019-04-25T21:57:37.683Z,0.60
2019-04-25T22:00:11.455Z,0.60
2019-04-25T22:02:42.151Z,0.60
2019-04-25T22:05:13.002Z,0.60
2019-04-25T22:07:43.801Z,0.60
2019-04-25T22:10:14.987Z,0.60
2019-04-25T22:12:45.358Z,0.60
2019-04-25T22:15:16.371Z,0.60
2019-04-25T22:17:46.736Z,0.60
2019-04-25T22:20:17.066Z,0.60
2019-04-25T22:22:47.301Z,0.60
2019-04-25T22:25:17.565Z,0.70
2019-04-25T22:27:48.749Z,0.60
2019-04-25T22:30:20.274Z,0.60
2019-04-25T22:33:11.090Z,0.60
2019-04-25T22:35:50.968Z,0.60
2019-04-25T22:38:21.482Z,0.60
2019-04-25T22:40:51.713Z,0.60
2019-04-25T22:43:21.740Z,0.60
2019-04-25T22:45:52.403Z,0.60
2019-04-25T22:48:26.183Z,0.60
2019-04-25T22:50:56.690Z,0.67
2019-04-25T22:53:27.100Z,0.60
2019-04-25T22:55:57.787Z,0.60
2019-04-25T22:58:28.076Z,0.60
2019-04-25T23:00:58.932Z,0.60
2019-04-25T23:03:36.544Z,0.60
2019-04-25T23:06:07.529Z,0.60
2019-04-25T23:08:38.058Z,0.60
2019-04-25T23:11:08.522Z,0.60
2019-04-25T23:13:38.827Z,0.60
2019-04-25T23:16:09.460Z,0.60
2019-04-25T23:18:39.786Z,0.70
2019-04-25T23:21:10.443Z,0.70
2019-04-25T23:23:40.730Z,0.60
2019-04-25T23:26:30.054Z,0.60
2019-04-25T23:29:01.168Z,0.60
2019-04-25T23:31:32.884Z,0.60
2019-04-25T23:34:04.500Z,0.60
2019-04-25T23:36:35.554Z,0.60
2019-04-25T23:39:09.662Z,0.60
2019-04-25T23:41:40.190Z,0.60
2019-04-25T23:44:10.518Z,0.60
2019-04-25T23:46:40.998Z,0.60
2019-04-25T23:49:11.410Z,0.60
2019-04-25T23:51:41.614Z,0.60
2019-04-25T23:54:11.774Z,0.60
2019-04-25T23:56:42.067Z,0.60
2019-04-25T23:59:13.516Z,0.70
